Pahranagat National Wildlife Refuge, Nevada Weather observations

Data are for 10 minute period ending at time listed.
 Day   Time   Solar   Ave.   Ave.  Ave.  Vector  Max.   Baro.   Total    
  of    of     Rad.   Air    Rel.  Wind   Wind   Wind  Press.  Precip.   
Year   Day            Temp.  Hum.  Speed  Dir.   Gust                    
2014   (PST)  Kw/m2    F      %     mph   deg.    mph    mb.     in.     
-------------------------------------------------------------------------
 210    0:00   0.00   73.2    61    6.2   351    10.9   906.1    0.00 
 210    0:10   0.00   72.5    63    4.1   342     7.0   906.0    0.00 
 210    0:20   0.00   71.2    66    3.0   331     4.5   906.0    0.00 
 210    0:30   0.00   69.7    70    2.3   293     3.4   906.0    0.00 
 210    0:40   0.00   68.5    73    3.0   289     4.3   905.9    0.00 
 210    0:50   0.00   68.0    75    2.6   290     3.8   905.9    0.00 
 210    1:00   0.00   67.8    76    3.0   304     4.0   905.9    0.00 
 210    1:10   0.00   66.4    79    2.9     3     3.5   905.9    0.00 
 210    1:20   0.00   67.0    78    2.3   343     3.3   905.9    0.00 
 210    1:30   0.00   65.6    79    1.1   299     2.8   905.8    0.00 
 210    1:40   0.00   65.2    82    0.6   151     2.0   905.7    0.00 
 210    1:50   0.00   65.3    82    1.0   292     2.3   905.7    0.00 
 210    2:00   0.00   64.1    82    0.9   282     2.1   905.8    0.00 
 210    2:10   0.00   63.7    84    1.4   359     1.9   905.8    0.00 
 210    2:20   0.00   64.8    82    1.2   336     1.7   905.8    0.00 
 210    2:30   0.00   63.6    82    1.2   285     2.6   905.8    0.00 
 210    2:40   0.00   62.3    86    0.2    82     1.0   905.8    0.00 
 210    2:50   0.00   63.9    84    0.9    19     2.5   905.8    0.00 
 210    3:00   0.00   65.4    80    2.7   357     4.2   905.8    0.00 
 210    3:10   0.00   63.8    83    3.4   348     4.2   905.8    0.00 
 210    3:20   0.00   64.4    82    2.7   355     4.9   905.8    0.00 
 210    3:30   0.00   64.8    80    1.5    22     2.2   905.9    0.00 
 210    3:40   0.00   64.4    80    0.8   256     2.1   906.0    0.00 
 210    3:50   0.00   63.0    84    0.6   151     1.4   906.0    0.00 
 210    4:00   0.00   63.9    85    0.5    15     1.4   906.0    0.00 
 210    4:10   0.00   64.8    81    1.6   296     2.3   905.9    0.00 
 210    4:20   0.00   63.2    85    0.8   134     2.0   905.8    0.00 
 210    4:30   0.00   63.2    87    0.9   248     1.7   905.8    0.00 
 210    4:40   0.00   64.9    84    3.0   355     6.4   905.7    0.00 
 210    4:50   0.00   67.6    77    4.5   352     5.8   905.7    0.00 
 210    5:00   0.01   67.7    75    4.5   330     6.5   905.6    0.00 
 210    5:10   0.01   68.2    74    4.6   332     6.3   905.6    0.00 
 210    5:20   0.02   67.7    76    3.5   338     5.4   905.8    0.00 
 210    5:30   0.06   68.6    75    2.2   340     3.7   905.9    0.00 
 210    5:40   0.04   69.3    73    2.1   336     3.9   906.0    0.00 
 210    5:50   0.06   69.5    74    2.5   317     3.9   906.2    0.00 
 210    6:00   0.10   70.0    75    1.6   315     3.2   906.4    0.00 
 210    6:10   0.17   71.7    67    6.8   336    12.2   906.6    0.00 
 210    6:20   0.20   72.8    65    6.1   294    10.4   906.8    0.00 
 210    6:30   0.15   73.6    64    3.9   293     8.9   906.8    0.00 
 210    6:40   0.14   73.9    60    9.1   332    18.3   906.9    0.00 
 210    6:50   0.12   73.5    62    9.8   335    16.7   906.9    0.00 
 210    7:00   0.09   73.3    63    8.8   338    15.0   906.9    0.00 
 210    7:10   0.08   73.2    63   10.3   337    16.5   907.0    0.00 
 210    7:20   0.07   72.8    63   10.7   336    18.1   907.1    0.00 
 210    7:30   0.07   72.2    66    8.0   317    12.9   907.3    0.00 
 210    7:40   0.07   71.8    67   10.0   315    20.0   907.6    0.00 
 210    7:50   0.10   70.9    70   12.9   324    20.2   907.7    0.00 
 210    8:00   0.15   70.3    72   12.7   339    19.5   907.7    0.00 
 210    8:10   0.17   69.5    75   12.6   339    18.6   907.8    0.00 
 210    8:20   0.27   69.8    76   10.4   338    15.3   907.9    0.00 
 210    8:30   0.27   70.2    75   11.3   321    15.9   907.9    0.00 
 210    8:40   0.32   70.5    75   11.5   318    17.0   907.7    0.00 
 210    8:50   0.63   72.4    71   10.1   313    15.6   907.8    0.00 
 210    9:00   0.69   74.6    67   10.7   311    16.1   907.8    0.00 
 210    9:10   0.73   74.2    66   11.7   318    16.9   907.7    0.00 
 210    9:20   0.58   74.2    66   10.8   320    16.2   907.6    0.00 
 210    9:30   0.49   73.9    67   11.3   331    15.9   907.5    0.00 
 210    9:40   0.44   73.7    68   11.7   334    18.8   907.3    0.00 
 210    9:50   0.64   74.2    68   12.4   340    17.7   907.1    0.00 
 210   10:00   0.80   76.0    64   12.4   331    18.0   907.1    0.00 
 210   10:10   0.78   76.8    64   11.9   329    18.8   906.9    0.00 
 210   10:20   0.71   76.6    63   13.0   332    20.0   906.7    0.00 
 210   10:30   0.79   76.9    62   12.1   329    20.2   906.6    0.00 
 210   10:40   0.81   77.4    60   13.2   340    17.9   906.4    0.00 
 210   10:50   0.83   78.0    60   12.3   340    16.1   906.3    0.00 
 210   11:00   0.84   78.8    59   12.1   340    18.9   906.2    0.00 
 210   11:10   0.84   78.9    58   12.6   338    19.3   906.0    0.00 
 210   11:20   0.85   79.4    57   12.1   341    17.5   905.9    0.00 
 210   11:30   0.85   80.2    55   10.8   336    17.1   905.8    0.00 
 210   11:40   0.86   80.7    52   10.4   339    15.1   905.7    0.00 
 210   11:50   0.87   81.2    51    9.7   326    13.5   905.5    0.00 
 210   12:00   0.88   82.2    50    8.9   326    12.6   905.4    0.00 
 210   12:10   0.91   83.2    48    7.1   320    11.7   905.3    0.00 
 210   12:20   0.62   82.9    48    7.7   327    11.5   905.2    0.00 
 210   12:30   0.47   82.7    48    6.9   326    11.7   905.1    0.00 
 210   12:40   0.51   82.5    48    7.4   337    12.2   905.0    0.00 
 210   12:50   0.34   82.4    48    7.4   336    12.5   904.8    0.00 
 210   13:00   0.23   81.4    50    7.4   326    11.6   904.8    0.00 
 210   13:10   0.25   81.4    51    6.7   333    10.4   904.6    0.00 
 210   13:20   0.38   82.5    50    5.8   332     8.7   904.5    0.00 
 210   13:30   0.78   85.0    47    7.0   326    13.2   904.4    0.00 
 210   13:40   0.90   86.5    44    8.1   328    12.1   904.3    0.00 

Return to Pahranagat N. Wildlife Refuge graphs page.


Western Regional Climate Center,wrcc@dri.edu